Terminal Aerodrome Forecast
Issued by NWS Cleveland, OH

Home | Current Version | Previous Version | Text Only | Print | Product List | Glossary Off
Versions: 1 2 3 4 5 6 7 8 9 10 11 12 13 14 15 16 17 18 19

000
FTUS41 KCLE 140542
TAFYNG
TAF
KYNG 140542Z 1406/1506 12008KT 1SM -SN SCT007 OVC015
     FM141100 34010KT P6SM VCSH OVC015
     FM141600 32010KT P6SM SCT015 OVC025
     FM150200 26004KT P6SM SCT014 BKN035=

USA.gov is the U.S. government's official web portal to all federal, state and local government web resources and services.